createdAt,value
2019-05-30T00:00:10.462Z,60.10
2019-05-30T00:02:34.666Z,60.40
2019-05-30T00:05:06.103Z,60.80
2019-05-30T00:07:37.242Z,61.00
2019-05-30T00:10:09.435Z,61.00
2019-05-30T00:12:40.383Z,61.00
2019-05-30T00:15:11.550Z,60.60
2019-05-30T00:17:42.573Z,60.50
2019-05-30T00:20:14.008Z,60.60
2019-05-30T00:22:44.863Z,60.70
2019-05-30T00:25:15.974Z,60.90
2019-05-30T00:27:46.923Z,60.90
2019-05-30T00:30:24.519Z,61.40
2019-05-30T00:32:50.639Z,61.70
2019-05-30T00:35:21.785Z,61.90
2019-05-30T00:37:52.798Z,62.00
2019-05-30T00:40:23.852Z,62.10
2019-05-30T00:42:55.821Z,62.20
2019-05-30T00:45:28.291Z,62.30
2019-05-30T00:48:00.137Z,62.20
2019-05-30T00:50:31.254Z,61.90
2019-05-30T00:53:02.887Z,62.00
2019-05-30T00:55:33.958Z,62.00
2019-05-30T00:58:04.991Z,62.20
2019-05-30T01:00:43.242Z,62.50
2019-05-30T01:03:09.191Z,62.40
2019-05-30T01:05:41.504Z,62.60
2019-05-30T01:08:12.409Z,62.50
2019-05-30T01:10:43.394Z,62.60
2019-05-30T01:13:14.317Z,62.70
2019-05-30T01:15:45.290Z,62.90
2019-05-30T01:18:16.325Z,62.80
2019-05-30T01:20:47.288Z,62.70
2019-05-30T01:23:18.231Z,62.50
2019-05-30T01:25:49.354Z,62.30
2019-05-30T01:28:20.441Z,62.40
2019-05-30T01:31:01.535Z,62.30
2019-05-30T01:33:24.087Z,62.60
2019-05-30T01:35:56.046Z,62.50
2019-05-30T01:38:29.124Z,62.70
2019-05-30T01:41:00.293Z,63.10
2019-05-30T01:43:31.281Z,63.20
2019-05-30T01:46:04.132Z,63.40
2019-05-30T01:48:35.440Z,63.90
2019-05-30T01:51:06.592Z,63.90
2019-05-30T01:53:37.497Z,63.70
2019-05-30T01:56:09.195Z,63.40
2019-05-30T01:58:40.138Z,63.20
2019-05-30T02:01:22.382Z,63.00
2019-05-30T02:03:43.669Z,62.80
2019-05-30T02:06:14.636Z,63.00
2019-05-30T02:08:45.509Z,63.00
2019-05-30T02:11:17.172Z,63.20
2019-05-30T02:13:48.256Z,62.90
2019-05-30T02:16:19.407Z,63.10
2019-05-30T02:18:50.858Z,63.00
2019-05-30T02:21:22.077Z,63.00
2019-05-30T02:23:52.994Z,63.10
2019-05-30T02:26:23.940Z,63.30
2019-05-30T02:28:54.838Z,63.40
2019-05-30T02:31:38.413Z,63.60
2019-05-30T02:34:00.879Z,63.70
2019-05-30T02:36:32.857Z,63.50
2019-05-30T02:39:05.003Z,63.30
2019-05-30T02:41:36.213Z,63.40
2019-05-30T02:44:08.125Z,63.90
2019-05-30T02:46:40.150Z,64.60
2019-05-30T02:49:13.099Z,64.70
2019-05-30T02:51:43.743Z,64.60
2019-05-30T02:54:14.653Z,64.70
2019-05-30T02:56:45.595Z,64.70
2019-05-30T02:59:16.451Z,64.60
2019-05-30T03:02:01.093Z,64.50
2019-05-30T03:04:20.003Z,64.40
2019-05-30T03:06:51.123Z,64.40
2019-05-30T03:09:22.249Z,64.10
2019-05-30T03:11:53.481Z,64.10
2019-05-30T03:14:24.589Z,63.80
2019-05-30T03:16:55.595Z,63.20
2019-05-30T03:19:27.254Z,63.70
2019-05-30T03:21:58.979Z,63.60
2019-05-30T03:24:29.894Z,63.70
2019-05-30T03:27:02.453Z,64.00
2019-05-30T03:29:33.576Z,64.20
2019-05-30T03:32:45.064Z,64.30
2019-05-30T03:34:38.137Z,64.10
2019-05-30T03:37:18.891Z,64.00
2019-05-30T03:39:43.314Z,64.00
2019-05-30T03:42:15.971Z,64.40
2019-05-30T03:44:47.394Z,64.60
2019-05-30T03:47:21.345Z,64.70
2019-05-30T03:49:57.517Z,65.00
2019-05-30T03:52:29.239Z,65.20
2019-05-30T03:55:01.117Z,65.30
2019-05-30T03:57:35.752Z,65.50
2019-05-30T04:04:02.142Z,65.80
2019-05-30T04:06:36.838Z,65.70
2019-05-30T04:09:11.883Z,65.60
2019-05-30T04:11:49.763Z,65.50
2019-05-30T04:14:25.655Z,65.50
2019-05-30T04:16:57.164Z,65.40
2019-05-30T04:19:28.720Z,65.10
2019-05-30T04:22:00.517Z,64.90
2019-05-30T04:24:30.623Z,64.70
2019-05-30T04:27:01.466Z,64.50
2019-05-30T04:29:32.321Z,64.70
2019-05-30T04:32:03.187Z,64.60
2019-05-30T04:34:34.073Z,64.50
2019-05-30T04:37:05.886Z,64.50
2019-05-30T04:39:36.794Z,64.60
2019-05-30T04:42:09.272Z,64.60
2019-05-30T04:44:39.902Z,64.70
2019-05-30T04:47:12.130Z,65.20
2019-05-30T04:49:43.241Z,65.00
2019-05-30T04:52:18.315Z,64.70
2019-05-30T04:54:48.211Z,64.40
2019-05-30T04:57:25.699Z,65.30
2019-05-30T04:59:53.448Z,64.50
2019-05-30T05:02:25.194Z,64.00
2019-05-30T05:04:56.905Z,64.10
2019-05-30T05:07:28.940Z,63.70
2019-05-30T05:10:00.731Z,63.60
2019-05-30T05:12:32.759Z,63.10
2019-05-30T05:15:04.565Z,62.90
2019-05-30T05:17:36.215Z,62.60
2019-05-30T05:20:09.599Z,62.80
2019-05-30T05:22:41.237Z,61.80
2019-05-30T05:25:13.479Z,61.50
2019-05-30T05:27:46.285Z,60.80
2019-05-30T05:30:20.141Z,60.40
2019-05-30T05:32:51.742Z,60.20
2019-05-30T05:35:23.127Z,59.70
2019-05-30T05:37:54.718Z,58.90
2019-05-30T05:40:26.340Z,59.10
2019-05-30T05:42:57.875Z,58.50
2019-05-30T05:45:29.386Z,58.50
2019-05-30T05:48:00.954Z,58.10
2019-05-30T05:50:32.516Z,57.90
2019-05-30T05:53:04.198Z,57.60
2019-05-30T05:55:36.286Z,56.50
2019-05-30T05:58:07.991Z,56.00
2019-05-30T06:00:41.281Z,55.20
2019-05-30T06:03:16.829Z,54.20
2019-05-30T06:05:53.076Z,53.70
2019-05-30T06:08:21.661Z,53.20
2019-05-30T06:10:53.452Z,51.50
2019-05-30T06:13:25.010Z,51.20
2019-05-30T06:15:56.717Z,50.50
2019-05-30T06:18:28.462Z,51.20
2019-05-30T06:21:00.071Z,50.10
2019-05-30T06:23:31.760Z,49.10
2019-05-30T06:26:03.594Z,48.30
2019-05-30T06:28:35.130Z,48.30
2019-05-30T06:31:06.400Z,46.10
2019-05-30T06:33:38.038Z,46.50
2019-05-30T06:36:10.181Z,44.80
2019-05-30T06:38:41.926Z,44.30
2019-05-30T06:41:13.770Z,42.50
2019-05-30T06:43:45.203Z,41.80
2019-05-30T06:46:16.798Z,40.90
2019-05-30T06:48:48.999Z,38.10
2019-05-30T06:51:22.814Z,35.00
2019-05-30T06:53:54.753Z,36.90
2019-05-30T06:56:27.462Z,37.40
2019-05-30T06:58:59.093Z,38.00
2019-05-30T07:01:32.064Z,35.60
2019-05-30T07:04:04.244Z,35.40
2019-05-30T07:06:36.381Z,35.90
2019-05-30T07:09:09.670Z,36.90
2019-05-30T07:11:41.426Z,37.00
2019-05-30T07:14:13.228Z,37.10
2019-05-30T07:16:44.811Z,34.00
2019-05-30T07:19:16.376Z,34.50
2019-05-30T07:21:47.980Z,34.00
2019-05-30T07:24:19.614Z,33.40
2019-05-30T07:26:52.468Z,33.50
2019-05-30T07:29:24.016Z,33.40
2019-05-30T07:31:55.845Z,33.60
2019-05-30T07:34:28.143Z,33.00
2019-05-30T07:36:59.809Z,33.60
2019-05-30T07:39:33.744Z,33.30
2019-05-30T07:42:06.758Z,33.70
2019-05-30T07:44:38.616Z,34.30
2019-05-30T07:47:10.317Z,33.40
2019-05-30T07:49:42.420Z,33.80
2019-05-30T07:52:14.680Z,32.60
2019-05-30T07:54:47.391Z,32.60
2019-05-30T07:57:19.079Z,33.20
2019-05-30T07:59:51.135Z,33.30
2019-05-30T08:02:22.879Z,29.80
2019-05-30T08:04:54.563Z,30.40
2019-05-30T08:07:26.550Z,30.00
2019-05-30T08:09:59.404Z,29.40
2019-05-30T08:12:32.016Z,29.20
2019-05-30T08:15:03.825Z,29.50
2019-05-30T08:20:06.913Z,29.70
2019-05-30T08:22:38.498Z,28.90
2019-05-30T08:25:11.345Z,28.90
2019-05-30T08:27:43.093Z,27.20
2019-05-30T08:30:15.321Z,28.50
2019-05-30T08:32:46.768Z,27.90
2019-05-30T08:35:18.233Z,27.90
2019-05-30T08:37:49.811Z,27.60
2019-05-30T08:40:21.647Z,27.10
2019-05-30T08:42:53.825Z,26.70
2019-05-30T08:45:25.467Z,26.60
2019-05-30T08:47:57.047Z,26.40
2019-05-30T08:50:28.642Z,27.80
2019-05-30T08:53:01.042Z,27.10
2019-05-30T08:55:32.693Z,26.50
2019-05-30T08:58:05.734Z,27.10
2019-05-30T09:00:37.423Z,26.40
2019-05-30T09:03:09.124Z,27.30
2019-05-30T09:05:57.008Z,27.40
2019-05-30T09:08:15.006Z,27.10
2019-05-30T09:10:46.800Z,27.50
2019-05-30T09:13:18.438Z,27.30
2019-05-30T09:15:49.492Z,26.90
2019-05-30T09:18:20.551Z,26.30
2019-05-30T09:20:52.217Z,26.70
2019-05-30T09:23:23.903Z,25.70
2019-05-30T09:25:55.631Z,25.40
2019-05-30T09:28:27.167Z,25.50
2019-05-30T09:30:58.786Z,26.00
2019-05-30T09:33:30.783Z,26.10
2019-05-30T09:36:12.572Z,26.40
2019-05-30T09:38:35.978Z,26.40
2019-05-30T09:41:07.885Z,26.10
2019-05-30T09:43:39.828Z,25.50
2019-05-30T09:46:12.860Z,24.50
2019-05-30T09:48:44.784Z,25.20
2019-05-30T09:51:17.851Z,23.90
2019-05-30T09:53:50.435Z,24.20
2019-05-30T09:56:22.261Z,24.20
2019-05-30T09:58:54.680Z,24.80
2019-05-30T10:01:26.449Z,24.70
2019-05-30T10:03:58.514Z,24.20
2019-05-30T10:06:30.647Z,25.30
2019-05-30T10:09:02.658Z,24.80
2019-05-30T10:11:35.936Z,25.20
2019-05-30T10:14:07.558Z,23.40
2019-05-30T10:16:39.275Z,22.40
2019-05-30T10:19:11.210Z,22.70
2019-05-30T10:21:42.930Z,23.50
2019-05-30T10:24:14.707Z,22.30
2019-05-30T10:26:47.240Z,23.60
2019-05-30T10:29:18.929Z,23.90
2019-05-30T10:31:50.666Z,22.50
2019-05-30T10:34:26.421Z,21.80
2019-05-30T10:36:57.907Z,21.90
2019-05-30T10:39:29.561Z,22.30
2019-05-30T10:42:01.836Z,21.80
2019-05-30T10:44:34.972Z,21.10
2019-05-30T10:47:06.278Z,22.40
2019-05-30T10:49:37.894Z,21.00
2019-05-30T10:52:09.603Z,21.50
2019-05-30T10:54:41.154Z,20.70
2019-05-30T10:57:12.815Z,21.10
2019-05-30T10:59:43.819Z,22.20
2019-05-30T11:02:15.381Z,22.00
2019-05-30T11:04:47.811Z,21.70
2019-05-30T11:07:33.093Z,21.50
2019-05-30T11:10:12.597Z,22.00
2019-05-30T11:12:43.624Z,21.70
2019-05-30T11:15:16.115Z,21.50
2019-05-30T11:17:49.008Z,21.00
2019-05-30T11:20:22.659Z,21.30
2019-05-30T11:22:54.768Z,20.20
2019-05-30T11:25:27.465Z,19.10
2019-05-30T11:27:58.966Z,20.00
2019-05-30T11:30:31.051Z,20.10
2019-05-30T11:33:02.703Z,19.90
2019-05-30T11:35:35.218Z,19.70
2019-05-30T11:38:06.477Z,20.10
2019-05-30T11:40:37.501Z,19.90
2019-05-30T11:43:08.646Z,20.30
2019-05-30T11:45:39.947Z,20.80
2019-05-30T11:48:13.832Z,21.00
2019-05-30T11:50:44.760Z,21.80
2019-05-30T11:53:15.762Z,20.60
2019-05-30T11:55:46.649Z,21.50
2019-05-30T11:58:19.600Z,20.60
2019-05-30T12:00:50.227Z,21.20
2019-05-30T12:03:21.417Z,21.40
2019-05-30T12:05:52.550Z,20.90
2019-05-30T12:08:23.770Z,21.10
2019-05-30T12:10:54.909Z,21.20
2019-05-30T12:13:26.401Z,21.40
2019-05-30T12:15:57.516Z,20.80
2019-05-30T12:18:28.785Z,21.60
2019-05-30T12:20:59.842Z,21.00
2019-05-30T12:23:30.866Z,20.60
2019-05-30T12:26:02.268Z,21.80
2019-05-30T12:28:33.330Z,22.90
2019-05-30T12:31:06.448Z,21.60
2019-05-30T12:33:36.918Z,19.70
2019-05-30T12:36:06.886Z,20.20
2019-05-30T12:38:37.891Z,20.30
2019-05-30T12:41:09.651Z,20.30
2019-05-30T12:43:40.692Z,19.40
2019-05-30T12:46:11.765Z,19.70
2019-05-30T12:48:42.669Z,20.30
2019-05-30T12:51:13.768Z,20.70
2019-05-30T12:53:44.622Z,20.10
2019-05-30T12:56:15.505Z,19.50
2019-05-30T12:58:47.470Z,18.50
2019-05-30T13:01:18.802Z,19.50
2019-05-30T13:03:49.764Z,18.40
2019-05-30T13:06:20.595Z,19.10
2019-05-30T13:08:51.968Z,18.10
2019-05-30T13:11:22.920Z,19.30
2019-05-30T13:13:55.095Z,19.20
2019-05-30T13:16:26.277Z,21.10
2019-05-30T13:18:57.970Z,17.60
2019-05-30T13:21:29.344Z,17.30
2019-05-30T13:24:01.479Z,18.60
2019-05-30T13:26:32.796Z,17.70
2019-05-30T13:29:04.406Z,18.80
2019-05-30T13:31:35.614Z,18.60
2019-05-30T13:34:07.135Z,19.40
2019-05-30T13:36:38.313Z,19.90
2019-05-30T13:39:08.053Z,19.60
2019-05-30T13:41:39.066Z,18.80
2019-05-30T13:44:10.038Z,19.20
2019-05-30T13:46:40.953Z,18.80
2019-05-30T13:49:11.912Z,17.80
2019-05-30T13:51:42.872Z,18.50
2019-05-30T13:54:13.771Z,20.00
2019-05-30T13:56:44.693Z,19.80
2019-05-30T13:59:15.632Z,19.50
2019-05-30T14:01:46.626Z,17.80
2019-05-30T14:04:17.587Z,19.10
2019-05-30T14:06:45.397Z,19.40
2019-05-30T14:09:16.281Z,20.00
2019-05-30T14:11:47.402Z,19.70
2019-05-30T14:14:19.824Z,18.80
2019-05-30T14:16:51.306Z,18.00
2019-05-30T14:19:25.009Z,19.20
2019-05-30T14:21:54.960Z,18.50
2019-05-30T14:24:27.483Z,18.80
2019-05-30T14:26:58.441Z,17.80
2019-05-30T14:29:29.396Z,18.50
2019-05-30T14:32:02.264Z,18.30
2019-05-30T14:34:34.544Z,17.60
2019-05-30T14:37:06.396Z,17.90
2019-05-30T14:39:37.677Z,17.80
2019-05-30T14:42:09.635Z,18.20
2019-05-30T14:44:40.642Z,16.80
2019-05-30T14:47:12.726Z,18.60
2019-05-30T14:49:44.757Z,16.10
2019-05-30T14:52:17.209Z,16.60
2019-05-30T14:54:49.288Z,16.60
2019-05-30T14:57:21.262Z,16.50
2019-05-30T14:59:53.022Z,16.60
2019-05-30T15:02:24.588Z,16.10
2019-05-30T15:04:56.760Z,17.60
2019-05-30T15:07:28.525Z,16.90
2019-05-30T15:10:02.414Z,17.40
2019-05-30T15:12:34.126Z,18.20
2019-05-30T15:15:12.410Z,17.70
2019-05-30T15:17:40.977Z,18.40
2019-05-30T15:20:14.569Z,17.40
2019-05-30T15:22:46.734Z,17.70
2019-05-30T15:25:19.283Z,18.20
2019-05-30T15:27:51.450Z,18.10
2019-05-30T15:30:23.606Z,18.20
2019-05-30T15:32:55.597Z,18.80
2019-05-30T15:35:27.954Z,18.10
2019-05-30T15:38:00.318Z,18.60
2019-05-30T15:40:32.216Z,18.00
2019-05-30T15:43:04.172Z,17.20
2019-05-30T15:45:36.177Z,17.40
2019-05-30T15:48:08.373Z,17.90
2019-05-30T15:50:40.621Z,17.70
2019-05-30T15:53:13.078Z,18.90
2019-05-30T15:55:46.246Z,18.80
2019-05-30T15:58:18.190Z,19.40
2019-05-30T16:00:52.258Z,18.90
2019-05-30T16:03:24.322Z,19.00
2019-05-30T16:05:55.989Z,19.40
2019-05-30T16:08:27.609Z,19.20
2019-05-30T16:10:59.357Z,19.90
2019-05-30T16:13:31.163Z,19.90
2019-05-30T16:16:02.974Z,19.10
2019-05-30T16:18:34.675Z,19.80
2019-05-30T16:21:07.446Z,20.20
2019-05-30T16:23:39.008Z,20.10
2019-05-30T16:26:11.012Z,20.10
2019-05-30T16:28:42.541Z,20.40
2019-05-30T16:31:14.233Z,21.00
2019-05-30T16:33:45.839Z,20.90
2019-05-30T16:36:17.866Z,21.00
2019-05-30T16:38:50.063Z,21.40
2019-05-30T16:41:22.332Z,21.00
2019-05-30T16:43:53.583Z,21.50
2019-05-30T16:46:24.458Z,20.90
2019-05-30T16:48:55.377Z,20.90
2019-05-30T16:51:26.965Z,21.40
2019-05-30T16:53:57.923Z,21.00
2019-05-30T16:56:28.881Z,21.00
2019-05-30T16:59:00.198Z,21.10
2019-05-30T17:01:31.069Z,21.40
2019-05-30T17:04:01.950Z,21.80
2019-05-30T17:06:32.815Z,22.00
2019-05-30T17:09:05.691Z,22.20
2019-05-30T17:11:36.544Z,22.40
2019-05-30T17:14:07.446Z,22.40
2019-05-30T17:16:38.454Z,22.90
2019-05-30T17:19:09.258Z,22.00
2019-05-30T17:21:40.158Z,22.20
2019-05-30T17:24:09.930Z,22.80
2019-05-30T17:26:41.521Z,23.20
2019-05-30T17:29:12.642Z,23.20
2019-05-30T17:31:43.839Z,23.80
2019-05-30T17:34:14.702Z,23.80
2019-05-30T17:36:45.556Z,23.90
2019-05-30T17:39:16.538Z,23.80
2019-05-30T17:41:47.300Z,23.90
2019-05-30T17:44:19.234Z,24.10
2019-05-30T17:48:02.829Z,23.90
2019-05-30T17:50:30.638Z,24.00
2019-05-30T17:53:19.763Z,24.00
2019-05-30T17:55:50.646Z,24.50
2019-05-30T17:58:21.907Z,24.70
2019-05-30T18:00:52.773Z,24.90
2019-05-30T18:03:24.396Z,25.20
2019-05-30T18:05:55.240Z,25.70
2019-05-30T18:08:26.868Z,26.20
2019-05-30T18:10:57.756Z,26.50
2019-05-30T18:13:29.224Z,26.70
2019-05-30T18:16:00.231Z,26.70
2019-05-30T18:18:31.474Z,27.00
2019-05-30T18:21:02.374Z,27.40
2019-05-30T18:23:39.233Z,27.40
2019-05-30T18:26:11.120Z,27.70
2019-05-30T18:28:44.018Z,27.90
2019-05-30T18:31:14.999Z,28.10
2019-05-30T18:33:46.081Z,28.60
2019-05-30T18:36:17.005Z,29.00
2019-05-30T18:41:17.542Z,29.50
2019-05-30T18:43:48.294Z,29.70
2019-05-30T18:46:19.318Z,29.70
2019-05-30T18:48:50.314Z,30.00
2019-05-30T18:51:21.141Z,30.20
2019-05-30T18:53:52.060Z,30.80
2019-05-30T18:56:22.896Z,31.20
2019-05-30T18:58:53.660Z,32.00
2019-05-30T19:01:25.395Z,32.90
2019-05-30T19:03:56.285Z,33.00
2019-05-30T19:06:28.245Z,34.40
2019-05-30T19:08:59.409Z,35.30
2019-05-30T19:11:34.645Z,36.20
2019-05-30T19:14:02.870Z,36.20
2019-05-30T19:16:34.626Z,36.60
2019-05-30T19:19:06.574Z,36.80
2019-05-30T19:21:38.478Z,36.80
2019-05-30T19:24:09.399Z,36.50
2019-05-30T19:26:40.282Z,36.70
2019-05-30T19:29:11.215Z,36.90
2019-05-30T19:31:42.780Z,36.80
2019-05-30T19:34:13.619Z,36.50
2019-05-30T19:36:44.520Z,36.50
2019-05-30T19:39:15.410Z,36.90
2019-05-30T19:41:56.716Z,37.30
2019-05-30T19:44:19.035Z,37.30
2019-05-30T19:46:50.010Z,37.40
2019-05-30T19:49:23.046Z,37.60
2019-05-30T19:51:56.608Z,37.40
2019-05-30T19:54:25.364Z,37.40
2019-05-30T19:56:58.319Z,37.30
2019-05-30T19:59:33.693Z,37.50
2019-05-30T20:02:05.013Z,37.90
2019-05-30T20:04:36.704Z,37.90
2019-05-30T20:07:07.674Z,37.80
2019-05-30T20:09:40.749Z,37.70
2019-05-30T20:12:11.687Z,37.70
2019-05-30T20:14:42.553Z,37.90
2019-05-30T20:17:13.460Z,37.90
2019-05-30T20:19:44.259Z,37.90
2019-05-30T20:22:15.046Z,37.90
2019-05-30T20:24:45.817Z,38.10
2019-05-30T20:27:16.680Z,38.40
2019-05-30T20:29:47.689Z,38.70
2019-05-30T20:32:18.641Z,38.60
2019-05-30T20:35:07.605Z,39.00
2019-05-30T20:40:48.489Z,39.00
2019-05-30T20:43:40.942Z,39.20
2019-05-30T20:46:41.301Z,39.40
2019-05-30T20:49:59.527Z,39.80
2019-05-30T20:52:43.737Z,40.70
2019-05-30T20:55:36.397Z,40.70
2019-05-30T20:58:45.770Z,40.60
2019-05-30T21:01:41.668Z,40.70
2019-05-30T21:04:11.530Z,40.80
2019-05-30T21:06:47.184Z,40.90
2019-05-30T21:09:42.474Z,41.00
2019-05-30T21:12:41.168Z,41.20
2019-05-30T21:15:15.790Z,41.20
2019-05-30T21:17:58.580Z,41.80
2019-05-30T21:20:37.808Z,41.20
2019-05-30T21:23:21.781Z,41.20
2019-05-30T21:25:54.219Z,41.20
2019-05-30T21:28:25.053Z,41.50
2019-05-30T21:30:55.929Z,41.40
2019-05-30T21:33:26.690Z,41.00
2019-05-30T21:35:57.517Z,41.30
2019-05-30T21:38:28.351Z,41.10
2019-05-30T21:40:59.148Z,41.20
2019-05-30T21:43:29.969Z,41.80
2019-05-30T21:46:02.555Z,41.10
2019-05-30T21:48:33.336Z,41.10
2019-05-30T21:51:04.359Z,41.50
2019-05-30T21:53:35.383Z,41.40
2019-05-30T21:56:07.097Z,41.10
2019-05-30T21:58:40.055Z,41.10
2019-05-30T22:01:33.030Z,41.40
2019-05-30T22:04:07.100Z,41.30
2019-05-30T22:06:38.250Z,41.40
2019-05-30T22:09:11.223Z,41.60
2019-05-30T22:11:43.504Z,41.50
2019-05-30T22:14:16.682Z,41.60
2019-05-30T22:16:47.920Z,41.90
2019-05-30T22:19:19.127Z,42.00
2019-05-30T22:21:50.381Z,42.50
2019-05-30T22:24:22.576Z,42.70
2019-05-30T22:26:54.492Z,42.60
2019-05-30T22:29:25.263Z,42.60
2019-05-30T22:31:55.955Z,42.60
2019-05-30T22:34:26.698Z,42.60
2019-05-30T22:36:57.491Z,42.80
2019-05-30T22:39:28.280Z,43.00
2019-05-30T22:41:59.048Z,43.10
2019-05-30T22:44:29.783Z,43.10
2019-05-30T22:47:00.495Z,43.30
2019-05-30T22:49:31.295Z,43.30
2019-05-30T22:52:02.039Z,43.60
2019-05-30T22:54:32.814Z,43.70
2019-05-30T22:57:03.582Z,43.70
2019-05-30T22:59:34.448Z,43.60
2019-05-30T23:02:05.205Z,44.00
2019-05-30T23:04:35.969Z,43.90
2019-05-30T23:07:06.752Z,43.90
2019-05-30T23:09:37.544Z,44.10
2019-05-30T23:12:08.319Z,44.30
2019-05-30T23:14:39.130Z,44.20
2019-05-30T23:17:13.014Z,45.10
2019-05-30T23:19:43.898Z,44.50
2019-05-30T23:22:14.664Z,44.50
2019-05-30T23:24:45.410Z,45.40
2019-05-30T23:27:16.159Z,44.70
2019-05-30T23:29:53.817Z,45.00
2019-05-30T23:32:24.788Z,45.10
2019-05-30T23:34:56.380Z,45.30
2019-05-30T23:37:27.230Z,45.20
2019-05-30T23:39:58.962Z,45.20
2019-05-30T23:42:29.751Z,45.00
2019-05-30T23:45:00.587Z,45.30
2019-05-30T23:47:31.592Z,45.50
2019-05-30T23:50:02.561Z,45.50
2019-05-30T23:52:33.397Z,45.60
2019-05-30T23:55:04.657Z,45.80
2019-05-30T23:57:35.373Z,45.60
